sensor_id;sensor_type;location;lat;lon;timestamp;pressure;altitude;pressure_sealevel;temperature;humidity
39435;BME280;66825;51.880;-0.518;2024-01-10T00:01:16;102100.50;;;15.45;36.77
39435;BME280;66825;51.880;-0.518;2024-01-10T00:03:42;102102.38;;;15.45;36.71
39435;BME280;66825;51.880;-0.518;2024-01-10T00:06:07;102093.66;;;15.43;36.89
39435;BME280;66825;51.880;-0.518;2024-01-10T00:08:32;102089.31;;;15.42;36.75
39435;BME280;66825;51.880;-0.518;2024-01-10T00:10:58;102097.47;;;15.42;36.81
39435;BME280;66825;51.880;-0.518;2024-01-10T00:13:23;102095.81;;;15.40;36.74
39435;BME280;66825;51.880;-0.518;2024-01-10T00:15:49;102089.53;;;15.40;36.84
39435;BME280;66825;51.880;-0.518;2024-01-10T00:18:14;102084.38;;;15.38;36.93
39435;BME280;66825;51.880;-0.518;2024-01-10T00:20:40;102085.69;;;15.36;36.82
39435;BME280;66825;51.880;-0.518;2024-01-10T00:23:05;101972.84;;;14.65;37.08
39435;BME280;66825;51.880;-0.518;2024-01-10T00:25:32;102082.13;;;15.35;36.77
39435;BME280;66825;51.880;-0.518;2024-01-10T00:27:57;102077.78;;;15.34;36.97
39435;BME280;66825;51.880;-0.518;2024-01-10T00:30:22;102075.28;;;15.33;36.77
39435;BME280;66825;51.880;-0.518;2024-01-10T00:32:48;102078.00;;;15.33;36.71
39435;BME280;66825;51.880;-0.518;2024-01-10T00:35:13;102080.16;;;15.31;36.83
39435;BME280;66825;51.880;-0.518;2024-01-10T00:37:38;102077.47;;;15.31;36.90
39435;BME280;66825;51.880;-0.518;2024-01-10T00:40:04;102075.81;;;15.30;36.94
39435;BME280;66825;51.880;-0.518;2024-01-10T00:42:30;102071.44;;;15.29;36.89
39435;BME280;66825;51.880;-0.518;2024-01-10T00:44:55;102074.41;;;15.27;36.89
39435;BME280;66825;51.880;-0.518;2024-01-10T00:47:20;102076.53;;;15.25;36.84
39435;BME280;66825;51.880;-0.518;2024-01-10T00:49:46;102074.63;;;15.25;36.86
39435;BME280;66825;51.880;-0.518;2024-01-10T00:52:11;102081.97;;;15.25;36.73
39435;BME280;66825;51.880;-0.518;2024-01-10T00:54:36;102077.59;;;15.24;36.78
39435;BME280;66825;51.880;-0.518;2024-01-10T00:57:01;102067.81;;;15.23;36.85
39435;BME280;66825;51.880;-0.518;2024-01-10T00:59:27;102077.00;;;15.22;36.93
39435;BME280;66825;51.880;-0.518;2024-01-10T01:01:52;102075.34;;;15.21;36.96
39435;BME280;66825;51.880;-0.518;2024-01-10T01:04:17;102075.34;;;15.21;36.76
39435;BME280;66825;51.880;-0.518;2024-01-10T01:06:43;102074.53;;;15.20;36.96
39435;BME280;66825;51.880;-0.518;2024-01-10T01:09:08;102078.31;;;15.19;37.02
39435;BME280;66825;51.880;-0.518;2024-01-10T01:11:33;102072.31;;;15.17;36.67
39435;BME280;66825;51.880;-0.518;2024-01-10T01:13:59;102076.09;;;15.16;36.97
39435;BME280;66825;51.880;-0.518;2024-01-10T01:16:24;102075.03;;;15.17;36.96
39435;BME280;66825;51.880;-0.518;2024-01-10T01:18:49;102070.91;;;15.15;36.79
39435;BME280;66825;51.880;-0.518;2024-01-10T01:21:15;102076.34;;;15.15;37.06
39435;BME280;66825;51.880;-0.518;2024-01-10T01:23:40;101949.84;;;14.39;37.01
39435;BME280;66825;51.880;-0.518;2024-01-10T01:26:05;102058.66;;;15.12;36.91
39435;BME280;66825;51.880;-0.518;2024-01-10T01:28:31;102061.38;;;15.12;36.96
39435;BME280;66825;51.880;-0.518;2024-01-10T01:30:57;102070.56;;;15.11;36.92
39435;BME280;66825;51.880;-0.518;2024-01-10T01:33:22;102064.34;;;15.11;36.93
39435;BME280;66825;51.880;-0.518;2024-01-10T01:35:48;102066.47;;;15.08;36.94
39435;BME280;66825;51.880;-0.518;2024-01-10T01:38:13;102065.66;;;15.08;36.95
39435;BME280;66825;51.880;-0.518;2024-01-10T01:40:39;102060.44;;;15.06;36.88
39435;BME280;66825;51.880;-0.518;2024-01-10T01:43:24;102054.19;;;15.06;36.96
39435;BME280;66825;51.880;-0.518;2024-01-10T01:45:51;102053.38;;;15.05;37.02
39435;BME280;66825;51.880;-0.518;2024-01-10T01:48:17;102056.31;;;15.04;36.91
39435;BME280;66825;51.880;-0.518;2024-01-10T01:50:42;102055.53;;;15.03;36.97
39435;BME280;66825;51.880;-0.518;2024-01-10T01:53:09;102056.59;;;15.02;36.94
39435;BME280;66825;51.880;-0.518;2024-01-10T01:55:34;102055.75;;;15.02;36.98
39435;BME280;66825;51.880;-0.518;2024-01-10T01:58:00;102053.03;;;15.02;36.96
39435;BME280;66825;51.880;-0.518;2024-01-10T02:00:25;101940.09;;;14.26;36.89
39435;BME280;66825;51.880;-0.518;2024-01-10T02:02:51;102057.06;;;14.99;36.97
39435;BME280;66825;51.880;-0.518;2024-01-10T02:05:17;102058.13;;;14.98;37.16
39435;BME280;66825;51.880;-0.518;2024-01-10T02:07:42;102054.59;;;14.98;36.92
39435;BME280;66825;51.880;-0.518;2024-01-10T02:10:08;102058.38;;;14.97;37.04
39435;BME280;66825;51.880;-0.518;2024-01-10T02:12:33;102059.44;;;14.96;36.95
39435;BME280;66825;51.880;-0.518;2024-01-10T02:14:59;102057.78;;;14.95;37.01
39435;BME280;66825;51.880;-0.518;2024-01-10T02:17:24;102056.16;;;14.93;36.75
39435;BME280;66825;51.880;-0.518;2024-01-10T02:19:50;102065.09;;;14.94;37.20
39435;BME280;66825;51.880;-0.518;2024-01-10T02:22:32;102061.81;;;14.92;37.06
39435;BME280;66825;51.880;-0.518;2024-01-10T02:24:57;102065.59;;;14.91;37.00
39435;BME280;66825;51.880;-0.518;2024-01-10T02:27:23;102062.06;;;14.90;36.97
39435;BME280;66825;51.880;-0.518;2024-01-10T02:29:49;102063.97;;;14.90;36.96
39435;BME280;66825;51.880;-0.518;2024-01-10T02:32:14;102058.53;;;14.90;37.01
39435;BME280;66825;51.880;-0.518;2024-01-10T02:34:40;102054.16;;;14.89;36.84
39435;BME280;66825;51.880;-0.518;2024-01-10T02:37:05;102048.97;;;14.87;36.88
39435;BME280;66825;51.880;-0.518;2024-01-10T02:39:30;102054.38;;;14.87;37.00
39435;BME280;66825;51.880;-0.518;2024-01-10T02:41:55;102059.00;;;14.87;37.17
39435;BME280;66825;51.880;-0.518;2024-01-10T02:44:21;102054.63;;;14.86;36.92
39435;BME280;66825;51.880;-0.518;2024-01-10T02:46:48;102048.41;;;14.85;36.95
39435;BME280;66825;51.880;-0.518;2024-01-10T02:49:13;102051.34;;;14.84;37.15
39435;BME280;66825;51.880;-0.518;2024-01-10T02:51:39;102046.75;;;14.84;36.96
39435;BME280;66825;51.880;-0.518;2024-01-10T02:54:04;102048.63;;;14.84;36.76
39435;BME280;66825;51.880;-0.518;2024-01-10T02:56:29;102041.56;;;14.83;36.79
39435;BME280;66825;51.880;-0.518;2024-01-10T02:58:55;102037.22;;;14.82;37.00
39435;BME280;66825;51.880;-0.518;2024-01-10T03:01:20;101920.47;;;14.07;36.82
39435;BME280;66825;51.880;-0.518;2024-01-10T03:03:45;102003.06;;;14.57;36.94
39435;BME280;66825;51.880;-0.518;2024-01-10T03:06:11;101928.38;;;14.08;37.08
39435;BME280;66825;51.880;-0.518;2024-01-10T03:08:36;102009.31;;;14.57;36.95
39435;BME280;66825;51.880;-0.518;2024-01-10T03:11:01;102034.16;;;14.78;37.03
39435;BME280;66825;51.880;-0.518;2024-01-10T03:13:27;102045.00;;;14.78;37.09
39435;BME280;66825;51.880;-0.518;2024-01-10T03:15:52;102047.13;;;14.76;37.06
39435;BME280;66825;51.880;-0.518;2024-01-10T03:18:17;102036.28;;;14.76;37.24
39435;BME280;66825;51.880;-0.518;2024-01-10T03:20:43;102037.34;;;14.75;37.31
39435;BME280;66825;51.880;-0.518;2024-01-10T03:23:08;102041.97;;;14.74;36.96
39435;BME280;66825;51.880;-0.518;2024-01-10T03:25:33;102034.88;;;14.73;37.12
39435;BME280;66825;51.880;-0.518;2024-01-10T03:27:59;102034.03;;;14.73;37.05
39435;BME280;66825;51.880;-0.518;2024-01-10T03:30:24;102035.13;;;14.72;37.22
39435;BME280;66825;51.880;-0.518;2024-01-10T03:32:49;102039.72;;;14.71;37.05
39435;BME280;66825;51.880;-0.518;2024-01-10T03:35:15;102044.34;;;14.71;37.02
39435;BME280;66825;51.880;-0.518;2024-01-10T03:37:40;102039.13;;;14.69;36.83
39435;BME280;66825;51.880;-0.518;2024-01-10T03:40:06;102051.63;;;14.70;37.26
39435;BME280;66825;51.880;-0.518;2024-01-10T03:42:31;102046.44;;;14.69;37.26
39435;BME280;66825;51.880;-0.518;2024-01-10T03:44:56;102046.44;;;14.69;36.98
39435;BME280;66825;51.880;-0.518;2024-01-10T03:47:22;102047.50;;;14.68;36.84
39435;BME280;66825;51.880;-0.518;2024-01-10T03:49:47;102048.56;;;14.67;37.09
39435;BME280;66825;51.880;-0.518;2024-01-10T03:52:12;102042.34;;;14.66;37.07
39435;BME280;66825;51.880;-0.518;2024-01-10T03:54:38;102041.50;;;14.66;36.81
39435;BME280;66825;51.880;-0.518;2024-01-10T03:57:04;102039.00;;;14.64;37.07
39435;BME280;66825;51.880;-0.518;2024-01-10T03:59:29;102030.06;;;14.64;36.89
39435;BME280;66825;51.880;-0.518;2024-01-10T04:01:55;102030.06;;;14.64;36.96
39435;BME280;66825;51.880;-0.518;2024-01-10T04:04:20;102031.13;;;14.63;36.98
39435;BME280;66825;51.880;-0.518;2024-01-10T04:06:46;102039.25;;;14.63;37.11
39435;BME280;66825;51.880;-0.518;2024-01-10T04:09:11;102034.88;;;14.61;37.06
39435;BME280;66825;51.880;-0.518;2024-01-10T04:11:38;102027.00;;;14.60;37.31
39435;BME280;66825;51.880;-0.518;2024-01-10T04:14:03;102037.00;;;14.59;37.01
39435;BME280;66825;51.880;-0.518;2024-01-10T04:16:29;102037.00;;;14.59;37.00
39435;BME280;66825;51.880;-0.518;2024-01-10T04:18:54;102029.94;;;14.58;37.16
39435;BME280;66825;51.880;-0.518;2024-01-10T04:21:19;102034.53;;;14.58;37.04
39435;BME280;66825;51.880;-0.518;2024-01-10T04:23:45;102029.38;;;14.56;36.96
39435;BME280;66825;51.880;-0.518;2024-01-10T04:26:10;102032.91;;;14.57;36.89
39435;BME280;66825;51.880;-0.518;2024-01-10T04:28:35;102034.78;;;14.56;37.15
39435;BME280;66825;51.880;-0.518;2024-01-10T04:31:01;102035.84;;;14.55;37.25
39435;BME280;66825;51.880;-0.518;2024-01-10T04:33:26;102033.97;;;14.56;37.13
39435;BME280;66825;51.880;-0.518;2024-01-10T04:35:52;102031.50;;;14.54;37.25
39435;BME280;66825;51.880;-0.518;2024-01-10T04:38:17;102040.44;;;14.55;37.19
39435;BME280;66825;51.880;-0.518;2024-01-10T04:40:43;102041.53;;;14.54;37.30
39435;BME280;66825;51.880;-0.518;2024-01-10T04:43:08;102037.97;;;14.53;37.25
39435;BME280;66825;51.880;-0.518;2024-01-10T04:45:34;102036.31;;;14.52;36.88
39435;BME280;66825;51.880;-0.518;2024-01-10T04:47:59;102036.31;;;14.52;36.96
39435;BME280;66825;51.880;-0.518;2024-01-10T04:50:24;102042.81;;;14.51;37.20
39435;BME280;66825;51.880;-0.518;2024-01-10T04:52:50;102031.16;;;14.51;37.27
39435;BME280;66825;51.880;-0.518;2024-01-10T04:55:15;102030.31;;;14.50;36.92
39435;BME280;66825;51.880;-0.518;2024-01-10T04:57:40;102029.50;;;14.50;36.95
39435;BME280;66825;51.880;-0.518;2024-01-10T05:00:06;102028.69;;;14.49;36.73
39435;BME280;66825;51.880;-0.518;2024-01-10T05:02:31;102030.56;;;14.49;37.24
39435;BME280;66825;51.880;-0.518;2024-01-10T05:04:57;102034.34;;;14.48;37.24
39435;BME280;66825;51.880;-0.518;2024-01-10T05:07:23;102036.22;;;14.47;36.91
39435;BME280;66825;51.880;-0.518;2024-01-10T05:09:48;102025.63;;;14.45;36.91
39435;BME280;66825;51.880;-0.518;2024-01-10T05:12:14;102025.63;;;14.45;36.95
39435;BME280;66825;51.880;-0.518;2024-01-10T05:14:39;102031.06;;;14.45;37.24
39435;BME280;66825;51.880;-0.518;2024-01-10T05:17:05;102027.50;;;14.45;36.92
39435;BME280;66825;51.880;-0.518;2024-01-10T05:19:30;102029.41;;;14.44;37.21
39435;BME280;66825;51.880;-0.518;2024-01-10T05:21:55;102021.28;;;14.44;36.97
39435;BME280;66825;51.880;-0.518;2024-01-10T05:24:22;102022.34;;;14.43;36.96
39435;BME280;66825;51.880;-0.518;2024-01-10T05:26:47;102026.91;;;14.43;37.38
39435;BME280;66825;51.880;-0.518;2024-01-10T05:29:16;101903.47;;;13.71;37.21
39435;BME280;66825;51.880;-0.518;2024-01-10T05:31:42;102009.03;;;14.42;37.18
39435;BME280;66825;51.880;-0.518;2024-01-10T05:34:08;102015.50;;;14.41;37.24
39435;BME280;66825;51.880;-0.518;2024-01-10T05:36:33;102018.22;;;14.41;37.09
39435;BME280;66825;51.880;-0.518;2024-01-10T05:38:59;102018.22;;;14.41;37.07
39435;BME280;66825;51.880;-0.518;2024-01-10T05:41:24;101915.25;;;13.76;37.06
39435;BME280;66825;51.880;-0.518;2024-01-10T05:43:50;102014.91;;;14.39;37.12
39435;BME280;66825;51.880;-0.518;2024-01-10T05:46:15;102028.47;;;14.39;36.98
39435;BME280;66825;51.880;-0.518;2024-01-10T05:48:41;102019.53;;;14.38;37.10
39435;BME280;66825;51.880;-0.518;2024-01-10T05:51:06;102022.44;;;14.37;37.22
39435;BME280;66825;51.880;-0.518;2024-01-10T05:53:32;102028.72;;;14.37;37.30
39435;BME280;66825;51.880;-0.518;2024-01-10T05:55:58;102024.34;;;14.36;37.07
39435;BME280;66825;51.880;-0.518;2024-01-10T05:58:23;102001.56;;;14.08;37.15
39435;BME280;66825;51.880;-0.518;2024-01-10T06:00:48;102026.22;;;14.36;37.39
39435;BME280;66825;51.880;-0.518;2024-01-10T06:03:14;102021.06;;;14.34;36.97
39435;BME280;66825;51.880;-0.518;2024-01-10T06:05:39;102013.78;;;14.23;37.08
39435;BME280;66825;51.880;-0.518;2024-01-10T06:08:04;102030.25;;;14.33;36.95
39435;BME280;66825;51.880;-0.518;2024-01-10T06:10:30;102024.00;;;14.33;37.44
39435;BME280;66825;51.880;-0.518;2024-01-10T06:12:56;102021.31;;;14.33;37.10
39435;BME280;66825;51.880;-0.518;2024-01-10T06:15:21;102023.16;;;14.32;37.14
39435;BME280;66825;51.880;-0.518;2024-01-10T06:17:47;102030.50;;;14.32;37.22
39435;BME280;66825;51.880;-0.518;2024-01-10T06:20:12;102032.38;;;14.31;37.24
39435;BME280;66825;51.880;-0.518;2024-01-10T06:22:38;101927.84;;;13.71;37.10
39435;BME280;66825;51.880;-0.518;2024-01-10T06:25:04;102027.19;;;14.29;37.28
39435;BME280;66825;51.880;-0.518;2024-01-10T06:27:29;102024.47;;;14.29;36.78
39435;BME280;66825;51.880;-0.518;2024-01-10T06:29:55;102026.38;;;14.29;37.04
39435;BME280;66825;51.880;-0.518;2024-01-10T06:32:20;102032.84;;;14.28;37.35
39435;BME280;66825;51.880;-0.518;2024-01-10T06:34:46;102032.03;;;14.27;37.59
39435;BME280;66825;51.880;-0.518;2024-01-10T06:37:11;102031.19;;;14.27;36.98
39435;BME280;66825;51.880;-0.518;2024-01-10T06:39:36;102035.81;;;14.26;37.33
39435;BME280;66825;51.880;-0.518;2024-01-10T06:42:02;102034.97;;;14.26;36.95
39435;BME280;66825;51.880;-0.518;2024-01-10T06:44:31;102041.25;;;14.26;37.09
39435;BME280;66825;51.880;-0.518;2024-01-10T06:46:56;102033.31;;;14.25;37.32
39435;BME280;66825;51.880;-0.518;2024-01-10T06:49:22;102043.34;;;14.24;37.19
39435;BME280;66825;51.880;-0.518;2024-01-10T06:51:47;102045.25;;;14.24;37.17
39435;BME280;66825;51.880;-0.518;2024-01-10T06:54:12;102037.13;;;14.24;37.34
39435;BME280;66825;51.880;-0.518;2024-01-10T06:56:38;102043.59;;;14.23;37.30
39435;BME280;66825;51.880;-0.518;2024-01-10T06:59:04;102035.47;;;14.23;37.40
39435;BME280;66825;51.880;-0.518;2024-01-10T07:01:29;102048.19;;;14.22;37.40
39435;BME280;66825;51.880;-0.518;2024-01-10T07:03:54;102040.06;;;14.22;37.32
39435;BME280;66825;51.880;-0.518;2024-01-10T07:06:20;102045.72;;;14.21;36.94
39435;BME280;66825;51.880;-0.518;2024-01-10T07:08:47;102048.44;;;14.21;37.30
39435;BME280;66825;51.880;-0.518;2024-01-10T07:11:13;102047.63;;;14.20;37.34
39435;BME280;66825;51.880;-0.518;2024-01-10T07:13:38;102047.63;;;14.20;37.36
39435;BME280;66825;51.880;-0.518;2024-01-10T07:16:04;102049.50;;;14.20;36.90
39435;BME280;66825;51.880;-0.518;2024-01-10T07:18:29;102043.25;;;14.19;36.87
39435;BME280;66825;51.880;-0.518;2024-01-10T07:20:55;102052.44;;;14.18;37.62
39435;BME280;66825;51.880;-0.518;2024-01-10T07:23:21;102054.09;;;14.19;37.38
39435;BME280;66825;51.880;-0.518;2024-01-10T07:25:48;102049.72;;;14.18;37.38
39435;BME280;66825;51.880;-0.518;2024-01-10T07:28:13;102042.66;;;14.17;36.84
39435;BME280;66825;51.880;-0.518;2024-01-10T07:30:38;102050.78;;;14.17;37.47
39435;BME280;66825;51.880;-0.518;2024-01-10T07:33:04;102056.22;;;14.17;37.59
39435;BME280;66825;51.880;-0.518;2024-01-10T07:35:29;102060.81;;;14.17;37.10
39435;BME280;66825;51.880;-0.518;2024-01-10T07:37:55;102055.63;;;14.15;37.54
39435;BME280;66825;51.880;-0.518;2024-01-10T07:40:20;102061.63;;;14.17;37.35
39435;BME280;66825;51.880;-0.518;2024-01-10T07:42:47;102062.69;;;14.16;37.36
39435;BME280;66825;51.880;-0.518;2024-01-10T07:45:13;102066.81;;;14.19;37.22
39435;BME280;66825;51.880;-0.518;2024-01-10T07:47:38;102064.69;;;14.21;37.66
39435;BME280;66825;51.880;-0.518;2024-01-10T07:50:04;102074.22;;;14.23;37.49
39435;BME280;66825;51.880;-0.518;2024-01-10T07:52:30;102072.72;;;14.27;37.36
39435;BME280;66825;51.880;-0.518;2024-01-10T07:54:55;102067.84;;;14.29;37.65
39435;BME280;66825;51.880;-0.518;2024-01-10T07:57:21;102076.13;;;14.35;37.73
39435;BME280;66825;51.880;-0.518;2024-01-10T07:59:46;102070.78;;;14.40;37.40
39435;BME280;66825;51.880;-0.518;2024-01-10T08:02:12;102073.25;;;14.41;37.12
39435;BME280;66825;51.880;-0.518;2024-01-10T08:04:37;102080.69;;;14.46;37.13
39435;BME280;66825;51.880;-0.518;2024-01-10T08:07:03;102074.78;;;14.49;37.22
39435;BME280;66825;51.880;-0.518;2024-01-10T08:09:28;102072.44;;;14.53;37.08
39435;BME280;66825;51.880;-0.518;2024-01-10T08:11:54;102073.81;;;14.55;37.10
39435;BME280;66825;51.880;-0.518;2024-01-10T08:14:19;101968.22;;;13.96;37.42
39435;BME280;66825;51.880;-0.518;2024-01-10T08:16:44;102067.44;;;14.61;37.31
39435;BME280;66825;51.880;-0.518;2024-01-10T08:19:10;102072.19;;;14.66;37.26
39435;BME280;66825;51.880;-0.518;2024-01-10T08:21:36;102068.16;;;14.69;36.95
39435;BME280;66825;51.880;-0.518;2024-01-10T08:24:02;102064.97;;;14.72;37.35
39435;BME280;66825;51.880;-0.518;2024-01-10T08:26:27;101961.00;;;14.13;37.30
39435;BME280;66825;51.880;-0.518;2024-01-10T08:28:53;102072.22;;;14.83;37.76
39435;BME280;66825;51.880;-0.518;2024-01-10T08:31:18;102079.41;;;14.89;37.94
39435;BME280;66825;51.880;-0.518;2024-01-10T08:33:44;102072.19;;;14.95;37.23
39435;BME280;66825;51.880;-0.518;2024-01-10T08:36:10;102071.22;;;15.01;37.28
39435;BME280;66825;51.880;-0.518;2024-01-10T08:38:35;102074.84;;;15.07;37.56
39435;BME280;66825;51.880;-0.518;2024-01-10T08:41:01;102071.16;;;15.13;37.24
39435;BME280;66825;51.880;-0.518;2024-01-10T08:43:26;102077.50;;;15.19;37.42
39435;BME280;66825;51.880;-0.518;2024-01-10T08:45:52;102072.97;;;15.24;37.44
39435;BME280;66825;51.880;-0.518;2024-01-10T08:48:17;102067.66;;;15.30;37.33
39435;BME280;66825;51.880;-0.518;2024-01-10T08:50:42;102068.53;;;15.35;37.15
39435;BME280;66825;51.880;-0.518;2024-01-10T08:53:09;102064.03;;;15.41;37.09
39435;BME280;66825;51.880;-0.518;2024-01-10T08:55:35;102067.66;;;15.47;36.92
39435;BME280;66825;51.880;-0.518;2024-01-10T08:58:02;102077.53;;;15.53;36.83
39435;BME280;66825;51.880;-0.518;2024-01-10T09:00:27;102065.09;;;15.57;36.89
39435;BME280;66825;51.880;-0.518;2024-01-10T09:02:53;102068.97;;;15.61;36.67
39435;BME280;66825;51.880;-0.518;2024-01-10T09:05:19;102062.56;;;15.67;36.65
39435;BME280;66825;51.880;-0.518;2024-01-10T09:07:44;102062.63;;;15.72;36.74
39435;BME280;66825;51.880;-0.518;2024-01-10T09:10:09;102062.72;;;15.78;36.86
39435;BME280;66825;51.880;-0.518;2024-01-10T09:12:35;102061.16;;;15.82;36.75
39435;BME280;66825;51.880;-0.518;2024-01-10T09:15:00;102062.56;;;15.84;36.78
39435;BME280;66825;51.880;-0.518;2024-01-10T09:17:26;102072.44;;;15.91;36.59
39435;BME280;66825;51.880;-0.518;2024-01-10T09:19:53;102075.25;;;15.96;36.49
39435;BME280;66825;51.880;-0.518;2024-01-10T09:22:18;102070.69;;;16.01;36.47
39435;BME280;66825;51.880;-0.518;2024-01-10T09:24:43;102070.78;;;16.07;36.63
39435;BME280;66825;51.880;-0.518;2024-01-10T09:27:10;102078.19;;;16.11;37.55
39435;BME280;66825;51.880;-0.518;2024-01-10T09:29:35;102065.47;;;16.17;36.97
39435;BME280;66825;51.880;-0.518;2024-01-10T09:32:01;102068.50;;;16.20;36.91
39435;BME280;66825;51.880;-0.518;2024-01-10T09:34:26;102065.88;;;16.26;36.91
39435;BME280;66825;51.880;-0.518;2024-01-10T09:36:51;102067.28;;;16.28;36.89
39435;BME280;66825;51.880;-0.518;2024-01-10T09:39:17;102076.28;;;16.34;36.64
39435;BME280;66825;51.880;-0.518;2024-01-10T09:41:46;102061.72;;;16.40;36.89
39435;BME280;66825;51.880;-0.518;2024-01-10T09:44:13;102070.75;;;16.46;36.85
39435;BME280;66825;51.880;-0.518;2024-01-10T09:46:39;102066.47;;;16.50;36.64
39435;BME280;66825;51.880;-0.518;2024-01-10T09:49:06;102071.13;;;16.55;36.90
39435;BME280;66825;51.880;-0.518;2024-01-10T09:51:32;102074.19;;;16.58;36.93
39435;BME280;66825;51.880;-0.518;2024-01-10T09:53:58;102085.13;;;16.63;37.18
39435;BME280;66825;51.880;-0.518;2024-01-10T09:56:25;102078.91;;;16.68;36.76
39435;BME280;66825;51.880;-0.518;2024-01-10T09:58:50;102081.69;;;16.73;36.95
39435;BME280;66825;51.880;-0.518;2024-01-10T10:01:18;102087.19;;;16.78;37.14
39435;BME280;66825;51.880;-0.518;2024-01-10T10:03:45;102085.59;;;16.82;36.68
39435;BME280;66825;51.880;-0.518;2024-01-10T10:06:11;102085.06;;;16.86;36.70
39435;BME280;66825;51.880;-0.518;2024-01-10T10:08:36;102089.75;;;16.90;36.83
39435;BME280;66825;51.880;-0.518;2024-01-10T10:11:03;102086.31;;;16.95;36.60
39435;BME280;66825;51.880;-0.518;2024-01-10T10:13:29;102099.16;;;16.99;36.44
39435;BME280;66825;51.880;-0.518;2024-01-10T10:15:58;102100.28;;;17.04;36.52
39435;BME280;66825;51.880;-0.518;2024-01-10T10:18:25;102093.81;;;17.10;36.78
39435;BME280;66825;51.880;-0.518;2024-01-10T10:21:03;101981.50;;;16.43;36.29
39435;BME280;66825;51.880;-0.518;2024-01-10T10:23:30;102096.31;;;17.17;36.51
39435;BME280;66825;51.880;-0.518;2024-01-10T10:25:56;102089.03;;;17.22;36.23
39435;BME280;66825;51.880;-0.518;2024-01-10T10:28:21;102087.44;;;17.26;36.06
39435;BME280;66825;51.880;-0.518;2024-01-10T10:30:46;102089.38;;;17.31;36.73
39435;BME280;66825;51.880;-0.518;2024-01-10T10:33:12;102086.16;;;17.34;36.22
39435;BME280;66825;51.880;-0.518;2024-01-10T10:35:37;102081.81;;;17.38;36.33
39435;BME280;66825;51.880;-0.518;2024-01-10T10:38:02;102094.09;;;17.41;36.42
39435;BME280;66825;51.880;-0.518;2024-01-10T10:40:28;102087.06;;;17.45;36.61
39435;BME280;66825;51.880;-0.518;2024-01-10T10:42:56;102093.91;;;17.48;36.79
39435;BME280;66825;51.880;-0.518;2024-01-10T10:45:22;102088.75;;;17.51;36.66
39435;BME280;66825;51.880;-0.518;2024-01-10T10:47:58;102087.41;;;17.54;36.61
39435;BME280;66825;51.880;-0.518;2024-01-10T10:50:24;102089.63;;;17.57;36.57
39435;BME280;66825;51.880;-0.518;2024-01-10T10:52:50;102082.81;;;17.59;36.30
39435;BME280;66825;51.880;-0.518;2024-01-10T10:55:17;102088.56;;;17.63;36.77
39435;BME280;66825;51.880;-0.518;2024-01-10T10:57:46;102088.59;;;17.68;36.71
39435;BME280;66825;51.880;-0.518;2024-01-10T11:00:15;102087.25;;;17.71;36.66
39435;BME280;66825;51.880;-0.518;2024-01-10T11:02:41;102087.56;;;17.74;36.58
39435;BME280;66825;51.880;-0.518;2024-01-10T11:05:07;102081.59;;;17.77;36.44
39435;BME280;66825;51.880;-0.518;2024-01-10T11:07:35;102080.25;;;17.80;36.70
39435;BME280;66825;51.880;-0.518;2024-01-10T11:10:00;102089.81;;;17.83;36.21
39435;BME280;66825;51.880;-0.518;2024-01-10T11:12:34;102084.66;;;17.86;36.32
39435;BME280;66825;51.880;-0.518;2024-01-10T11:25:17;102054.78;;;18.02;36.14
39435;BME280;66825;51.880;-0.518;2024-01-10T11:27:44;102064.34;;;18.04;36.15
39435;BME280;66825;51.880;-0.518;2024-01-10T11:30:12;102059.19;;;18.08;36.18
39435;BME280;66825;51.880;-0.518;2024-01-10T11:32:37;102060.81;;;18.09;35.98
39435;BME280;66825;51.880;-0.518;2024-01-10T11:35:05;102064.91;;;18.12;35.89
39435;BME280;66825;51.880;-0.518;2024-01-10T11:37:43;102056.22;;;18.15;35.95
39435;BME280;66825;51.880;-0.518;2024-01-10T11:40:09;102072.88;;;18.18;36.11
39435;BME280;66825;51.880;-0.518;2024-01-10T11:45:06;101964.59;;;17.66;36.53
39435;BME280;66825;51.880;-0.518;2024-01-10T11:47:32;102062.00;;;18.29;36.23
39435;BME280;66825;51.880;-0.518;2024-01-10T11:49:57;102059.56;;;18.32;36.30
39435;BME280;66825;51.880;-0.518;2024-01-10T11:52:23;102054.38;;;18.36;35.96
39435;BME280;66825;51.880;-0.518;2024-01-10T11:54:51;102061.25;;;18.38;35.88
39435;BME280;66825;51.880;-0.518;2024-01-10T11:59:42;102042.16;;;18.44;36.00
39435;BME280;66825;51.880;-0.518;2024-01-10T12:02:10;102031.81;;;18.46;36.00
39435;BME280;66825;51.880;-0.518;2024-01-10T12:04:35;102041.09;;;18.50;36.12
39435;BME280;66825;51.880;-0.518;2024-01-10T12:07:03;102039.47;;;18.54;35.73
39435;BME280;66825;51.880;-0.518;2024-01-10T12:09:30;102039.19;;;18.55;35.84
39435;BME280;66825;51.880;-0.518;2024-01-10T12:11:56;102023.38;;;18.57;36.10
39435;BME280;66825;51.880;-0.518;2024-01-10T12:14:21;102029.94;;;18.62;36.16
39435;BME280;66825;51.880;-0.518;2024-01-10T12:16:47;102025.84;;;18.64;35.91
39435;BME280;66825;51.880;-0.518;2024-01-10T12:19:12;102028.03;;;18.67;35.94
39435;BME280;66825;51.880;-0.518;2024-01-10T12:21:37;102016.56;;;18.70;35.98
39435;BME280;66825;51.880;-0.518;2024-01-10T12:24:03;101906.16;;;18.04;35.89
39435;BME280;66825;51.880;-0.518;2024-01-10T12:26:30;102020.41;;;18.75;35.96
39435;BME280;66825;51.880;-0.518;2024-01-10T12:28:56;102011.16;;;18.76;35.90
39435;BME280;66825;51.880;-0.518;2024-01-10T12:31:22;102019.34;;;18.76;35.87
39435;BME280;66825;51.880;-0.518;2024-01-10T12:33:50;102013.88;;;18.76;35.92
39435;BME280;66825;51.880;-0.518;2024-01-10T12:36:16;102013.88;;;18.76;35.83
39435;BME280;66825;51.880;-0.518;2024-01-10T12:38:42;102013.03;;;18.75;35.82
39435;BME280;66825;51.880;-0.518;2024-01-10T12:41:08;102014.13;;;18.74;35.79
39435;BME280;66825;51.880;-0.518;2024-01-10T12:43:36;101903.19;;;18.06;35.38
39435;BME280;66825;51.880;-0.518;2024-01-10T12:46:11;102011.94;;;18.71;35.73
39435;BME280;66825;51.880;-0.518;2024-01-10T12:48:40;101996.94;;;18.68;35.51